Latest Weather Observations for Macquarie Island

IDT60801

Issued at 10:35 pm EDT Thursday 27 November 2014 (issued every 30 minutes, with the page automatically refreshed every 10 minutes)

About weather observations | Map of weather stations | Latest weather observations for TAS | Other Formats
Station Details ID: 300004 Name: MACQUARIE ISLAND Lat: -54.50 Lon: 158.94 Height: 6.0 m
Data from the previous 72 hours. | See also: Recent months at Macquarie Island
Date/Time
EDT
Temp
°C
App
Temp
°C
Dew
Point
Rel
Hum
%
Delta-T
°C
Wind Press
QNH
hPa
Press
MSL
hPa
Rain
since 9 am
mm
Dir
 
Spd
km/h
Gust
km/h
Spd
kts
Gust
kts
27/10:30pm 2.7 -1.8 -0.4 80 1.1 S 13 28 7 15 1003.9 - 0.0
27/10:00pm 2.7 -2.6 -0.6 79 1.2 S 17 24 9 13 1003.9 - 0.0
27/09:30pm 2.5 -2.8 -0.9 78 1.2 SSW 17 30 9 16 1003.8 - 0.0
27/09:00pm 2.6 -2.7 -0.7 79 1.2 SSW 17 26 9 14 1003.7 1004.0 0.0
27/08:30pm 2.8 -3.0 -0.3 80 1.1 S 20 32 11 17 1003.5 - 0.0
27/08:00pm 2.8 -3.3 0.2 83 1.0 S 22 46 12 25 1003.2 - 0.0
27/07:30pm 2.7 -2.5 0.4 85 0.9 SSW 17 30 9 16 1003.1 - 0.0
27/07:00pm 2.7 -3.1 0.1 83 1.0 SSW 20 39 11 21 1002.9 - 0.0
27/06:30pm 2.8 -2.9 0.4 84 0.9 S 20 33 11 18 1002.5 - 0.0
27/06:00pm 3.3 -2.9 -0.3 77 1.3 S 22 39 12 21 1002.2 1002.5 0.0
27/05:30pm 3.5 -2.8 -0.7 74 1.5 S 22 39 12 21 1002.2 - 0.0
27/05:00pm 3.1 -4.0 -1.1 74 1.5 S 26 43 14 23 1002.0 - 0.0
27/04:30pm 3.7 -3.4 -1.1 71 1.7 S 26 41 14 22 1001.8 - 0.0
27/04:14pm 3.7 -4.5 -1.3 70 1.8 S 32 50 17 27 1001.7 - 0.0
27/04:00pm 3.3 -4.2 -1.1 73 1.6 S 28 44 15 24 1001.8 - 0.0
27/03:49pm 2.8 -5.7 -1.7 72 1.6 S 33 52 18 28 1001.7 - 0.0
27/03:30pm 2.5 -6.4 -2.2 71 1.6 S 35 50 19 27 1001.6 - 0.0
27/03:06pm 2.6 -5.9 -1.7 73 1.5 S 33 54 18 29 1001.2 - 0.0
27/03:00pm 2.4 -5.6 -2.3 71 1.6 S 30 43 16 23 1001.2 1001.5 0.0
27/02:32pm 2.5 -5.9 -2.2 71 1.6 S 32 50 17 27 1000.9 - 0.0
27/02:30pm 2.6 -5.9 -2.1 71 1.6 S 33 50 18 27 1000.9 - 0.0
27/02:01pm 2.5 -6.0 -2.0 72 1.6 S 33 52 18 28 1000.7 - 0.0
27/02:00pm 2.4 -6.5 -2.3 71 1.6 S 35 52 19 28 1000.6 - 0.0
27/01:30pm 2.7 -4.9 -2.4 69 1.8 S 28 46 15 25 1000.2 - 0.0
27/01:01pm 2.4 -6.2 -2.7 69 1.7 S 33 52 18 28 999.8 - 0.0
27/01:00pm 2.4 -6.1 -3.1 67 1.9 S 32 48 17 26 999.8 - 0.0
27/12:50pm 2.4 -6.1 -3.3 66 1.9 S 32 52 17 28 999.7 - 0.0
27/12:30pm 2.5 -6.2 -3.4 65 2.0 S 33 48 18 26 999.4 - 0.0
27/12:00pm 2.4 -6.0 -2.5 70 1.7 SSW 32 56 17 30 999.3 999.6 0.0
27/11:30am 2.2 -6.8 -2.7 70 1.7 S 35 59 19 32 998.9 - 0.0
27/11:00am 1.7 -6.8 -3.2 70 1.6 S 32 54 17 29 998.7 - 0.0
27/10:32am 1.7 -7.7 -3.2 70 1.6 S 37 57 20 31 998.4 - 0.0
27/10:30am 1.6 -7.4 -3.1 71 1.6 S 35 52 19 28 998.4 - 0.0
27/10:16am 1.8 -5.9 -2.9 71 1.6 S 28 46 15 25 998.2 - 0.0
27/10:00am 1.9 -7.5 -2.8 71 1.6 S 37 54 20 29 998.0 - 0.0
27/09:30am 1.5 -6.9 -2.8 73 1.5 S 32 52 17 28 997.7 - 0.0
27/09:26am 1.5 -7.5 -2.6 74 1.4 S 35 54 19 29 997.6 - 0.0
27/09:00am 1.6 -8.5 -2.2 76 1.3 S 41 54 22 29 997.1 997.4 0.6
27/08:34am 1.2 -8.9 -2.5 76 1.3 S 41 59 22 32 996.9 - 0.6
27/08:30am 1.4 -9.1 -2.2 77 1.2 S 43 59 23 32 996.8 - 0.6
27/08:02am 1.3 -8.1 -2.5 76 1.3 S 37 63 20 34 996.2 - 0.6
27/08:00am 1.3 -7.7 -2.5 76 1.3 S 35 50 19 27 996.3 - 0.6
27/07:30am 1.4 -7.9 -2.0 78 1.2 S 37 59 20 32 995.8 - 0.6
27/07:00am 1.2 -8.5 -1.9 80 1.1 S 39 63 21 34 995.4 - 0.6
27/06:32am 1.1 -7.4 -1.8 81 1.0 S 33 52 18 28 994.9 - 0.6
27/06:30am 1.1 -7.2 -1.6 82 0.9 S 32 44 17 24 994.8 - 0.6
27/06:00am 1.0 -8.7 -2.1 80 1.1 S 39 65 21 35 994.2 994.5 0.6
27/05:30am 1.3 -8.3 -1.4 82 0.9 S 39 61 21 33 993.3 - 0.6
27/05:00am 1.4 -7.8 -1.3 82 0.9 S 37 67 20 36 992.7 - 0.6
27/04:33am 1.5 -8.0 -1.1 83 0.9 S 39 59 21 32 992.1 - 0.6
27/04:30am 1.7 -7.4 -0.9 83 0.9 S 37 54 20 29 992.0 - 0.6
27/04:00am 1.8 -6.5 -0.1 87 0.7 S 33 52 18 28 991.5 - 0.6
27/03:30am 2.1 -8.1 -0.2 85 0.8 S 43 61 23 33 990.9 - 0.6
27/03:00am 2.3 -7.4 0.4 87 0.7 S 41 61 22 33 990.4 990.7 0.6
27/02:31am 2.3 -6.6 0.5 88 0.7 S 37 56 20 30 990.1 - 0.6
27/02:30am 2.3 -6.6 0.5 88 0.7 S 37 54 20 29 990.1 - 0.6
27/02:00am 2.4 -6.5 0.6 88 0.7 S 37 61 20 33 989.8 - 0.6
27/01:30am 2.5 -6.8 0.9 89 0.6 S 39 61 21 33 989.3 - 0.6
27/01:00am 2.7 -5.8 1.2 90 0.6 S 35 57 19 31 988.9 - 0.6
27/12:30am 2.9 -5.5 1.4 90 0.6 S 35 56 19 30 988.6 - 0.4
27/12:00am 3.1 -5.7 1.6 90 0.6 SSW 37 59 20 32 988.3 988.6 0.4
 
Date/Time
EDT
Temp
°C
App
Temp
°C
Dew
Point
Rel
Hum
%
Delta-T
°C
Wind Press
QNH
hPa
Press
MSL
hPa
Rain
since 9 am
mm
Dir
 
Spd
km/h
Gust
km/h
Spd
kts
Gust
kts
26/11:30pm 3.1 -7.0 1.5 89 0.6 SSW 44 65 24 35 988.0 - 0.4
26/11:00pm 3.4 -4.9 2.1 91 0.5 SSW 35 61 19 33 987.6 - 0.4
26/10:30pm 3.6 -4.7 2.4 92 0.5 SSW 35 57 19 31 987.2 - 0.4
26/10:00pm 3.7 -4.9 2.5 92 0.5 SSW 37 57 20 31 987.0 - 0.2
26/09:30pm 3.9 -3.0 2.7 92 0.5 SSW 28 50 15 27 986.5 - 0.2
26/09:19pm 4.1 -2.8 2.8 91 0.5 SSW 28 46 15 25 986.3 - 0.2
26/09:00pm 4.1 -3.5 2.8 91 0.5 SSW 32 48 17 26 986.0 986.3 0.2
26/08:30pm 4.3 -3.3 3.1 92 0.5 SSW 32 50 17 27 985.6 - 0.2
26/08:00pm 4.4 -3.7 3.2 92 0.5 SW 35 56 19 30 984.9 - 0.2
26/07:49pm 4.5 -3.2 3.3 92 0.5 SSW 33 52 18 28 984.6 - 0.2
26/07:30pm 4.6 -3.1 3.3 91 0.5 SSW 33 48 18 26 984.3 - 0.2
26/07:09pm 4.9 -2.6 3.6 91 0.5 SW 32 50 17 27 984.0 - 0.2
26/07:00pm 5.0 -3.4 3.7 91 0.5 SW 37 50 20 27 983.9 - 0.2
26/06:42pm 5.4 -2.0 3.9 90 0.6 SW 32 50 17 27 983.5 - 0.2
26/06:30pm 5.8 -1.2 4.3 90 0.6 SW 30 43 16 23 983.3 - 0.2
26/06:04pm 6.2 -1.1 4.4 88 0.8 SSW 32 50 17 27 983.0 - 0.2
26/06:00pm 6.3 -0.2 4.5 88 0.8 SSW 28 44 15 24 982.9 983.2 0.2
26/05:30pm 6.4 -0.5 4.7 89 0.7 SSW 30 41 16 22 982.6 - 0.2
26/05:00pm 7.2 0.4 4.9 85 1.0 SSW 30 43 16 23 982.2 - 0.2
26/04:46pm 7.8 0.4 5.1 83 1.2 S 33 52 18 28 981.9 - 0.2
26/04:30pm 8.0 0.8 5.1 82 1.3 S 32 46 17 25 981.7 - 0.2
26/04:08pm 8.1 1.7 5.2 82 1.3 SSW 28 59 15 32 981.4 - 0.2
26/04:00pm 8.2 1.5 5.7 84 1.1 S 30 41 16 22 981.2 - 0.2
26/03:41pm 7.7 1.0 5.5 86 1.0 S 30 48 16 26 980.9 - 0.2
26/03:30pm 7.9 0.3 5.7 86 1.0 S 35 48 19 26 980.8 - 0.2
26/03:00pm 6.5 -2.1 4.8 89 0.8 S 39 48 21 26 980.5 980.8 0.2
26/02:30pm 6.5 -1.7 5.0 90 0.7 S 37 48 20 26 980.1 - 0.2
26/02:00pm 6.4 -1.7 5.2 92 0.5 S 37 50 20 27 979.8 - 0.2
26/01:30pm 5.8 -2.0 4.8 93 0.4 S 35 52 19 28 979.6 - 0.2
26/01:29pm 5.9 -1.5 4.9 93 0.4 S 33 52 18 28 979.6 - 0.2
26/01:00pm 5.5 -2.0 4.6 94 0.4 S 33 43 18 23 979.3 - 0.2
26/12:30pm 5.5 -2.0 4.6 94 0.4 S 33 44 18 24 978.9 - 0.2
26/12:00pm 5.6 -1.9 4.7 94 0.4 S 33 46 18 25 978.5 978.8 0.2
26/11:30am 5.4 -1.9 4.7 95 0.3 S 32 43 17 23 978.4 - 0.2
26/11:00am 5.3 -2.6 4.6 95 0.3 S 35 43 19 23 978.2 - 0.2
26/10:30am 5.2 -2.3 4.5 95 0.3 S 33 44 18 24 978.0 - 0.2
26/10:00am 5.2 -1.3 4.5 95 0.3 SSE 28 37 15 20 977.7 - 0.0
26/09:30am 5.2 -2.1 4.5 95 0.3 SSE 32 41 17 22 977.8 - 0.0
26/09:00am 5.2 -1.7 4.6 96 0.3 S 30 43 16 23 977.6 977.9 17.6
26/08:30am 5.2 -0.9 4.6 96 0.3 S 26 35 14 19 977.5 - 17.4
26/08:00am 5.1 -1.1 4.5 96 0.3 S 26 33 14 18 977.2 - 17.2
26/07:30am 5.2 -0.6 4.6 96 0.3 S 24 32 13 17 977.1 - 16.6
26/07:00am 5.2 -1.7 4.6 96 0.3 S 30 35 16 19 976.7 - 15.8
26/06:30am 5.1 -1.8 4.5 96 0.3 S 30 37 16 20 976.2 - 15.4
26/06:00am 5.1 -1.1 4.5 96 0.3 SSE 26 33 14 18 975.9 976.2 15.2
26/05:30am 5.1 -1.4 4.5 96 0.3 SSE 28 35 15 19 975.6 - 15.2
26/05:00am 5.4 -1.5 4.8 96 0.3 SSE 30 35 16 19 975.5 - 15.2
26/04:30am 5.4 -1.1 4.8 96 0.3 SSE 28 33 15 18 975.5 - 15.2
26/04:00am 5.4 -0.3 4.8 96 0.3 SSE 24 30 13 16 975.6 - 15.0
26/03:30am 5.3 -0.1 4.7 96 0.3 SSE 22 30 12 16 975.7 - 15.0
26/03:00am 5.5 0.6 4.9 96 0.3 SSE 20 26 11 14 976.0 976.3 14.6
26/02:30am 5.7 0.4 5.1 96 0.3 SSE 22 28 12 15 975.8 - 14.4
26/02:00am 5.5 0.7 4.9 96 0.3 SSE 19 24 10 13 976.0 - 14.2
26/01:30am 5.6 1.6 5.0 96 0.3 SSE 15 19 8 10 976.2 - 14.0
26/01:00am 5.5 1.9 4.9 96 0.3 SSE 13 19 7 10 976.5 - 13.6
26/12:30am 5.4 2.9 4.8 96 0.3 S 7 9 4 5 976.9 - 13.6
26/12:00am 5.4 2.5 4.8 96 0.3 S 9 11 5 6 977.3 977.6 13.2
 
Date/Time
EDT
Temp
°C
App
Temp
°C
Dew
Point
Rel
Hum
%
Delta-T
°C
Wind Press
QNH
hPa
Press
MSL
hPa
Rain
since 9 am
mm
Dir
 
Spd
km/h
Gust
km/h
Spd
kts
Gust
kts
25/11:30pm 5.7 2.1 5.1 96 0.3 ESE 13 24 7 13 977.7 - 12.6
25/11:00pm 5.6 2.4 5.0 96 0.3 ESE 11 22 6 12 978.0 - 11.2
25/10:30pm 5.5 2.6 4.9 96 0.3 SSE 9 17 5 9 978.2 - 11.0
25/10:00pm 5.5 3.0 4.9 96 0.3 S 7 11 4 6 978.6 - 10.2
25/09:30pm 5.7 2.5 5.1 96 0.3 WNW 11 20 6 11 978.8 - 9.6
25/09:00pm 5.8 2.6 5.2 96 0.3 W 11 24 6 13 979.0 979.3 9.2
25/08:30pm 5.9 2.4 5.3 96 0.3 NW 13 28 7 15 979.3 - 9.0
25/08:00pm 5.6 2.0 4.9 95 0.3 SE 13 28 7 15 979.5 - 8.4
25/07:30pm 5.9 2.7 5.3 96 0.3 SE 11 22 6 12 980.0 - 7.8
25/07:00pm 6.0 2.5 5.3 95 0.3 NE 13 30 7 16 980.2 - 7.4
25/06:30pm 6.4 3.3 5.7 95 0.3 NE 11 20 6 11 980.5 - 7.0
25/06:00pm 6.0 2.8 5.3 95 0.3 NE 11 19 6 10 980.8 981.1 6.8
25/05:30pm 6.4 3.3 5.7 95 0.3 NE 11 24 6 13 981.2 - 6.2
25/05:00pm 6.6 3.6 5.9 95 0.3 NE 11 17 6 9 981.6 - 6.0
25/04:30pm 6.9 -0.1 6.2 95 0.3 N 32 61 17 33 982.0 - 5.6
25/04:00pm 6.7 0.5 6.0 95 0.3 N 28 59 15 32 982.7 - 5.2
25/03:30pm 6.6 0.3 5.9 95 0.3 N 28 54 15 29 983.3 - 5.0
25/03:00pm 6.7 0.8 6.0 95 0.3 N 26 44 14 24 984.0 984.3 4.6
25/02:30pm 6.8 -0.7 6.1 95 0.3 N 35 65 19 35 984.8 - 4.0
25/02:00pm 6.7 -1.6 6.0 95 0.3 N 39 61 21 33 985.3 - 3.6
25/01:30pm 6.9 -1.8 6.2 95 0.3 N 41 69 22 37 985.6 - 2.8
25/01:00pm 7.0 -0.9 6.1 94 0.4 N 37 63 20 34 986.5 - 2.4
25/12:30pm 7.1 -1.9 6.4 95 0.3 N 43 74 23 40 987.4 - 2.2
25/12:00pm 7.1 -1.9 6.4 95 0.3 N 43 69 23 37 987.6 987.9 1.6
25/11:30am 7.0 -0.9 6.4 96 0.3 N 37 63 20 34 988.0 - 1.2
25/11:00am 6.9 0.0 6.3 96 0.3 N 32 63 17 34 988.8 - 1.2
25/10:30am 6.9 -0.2 6.3 96 0.3 N 33 65 18 35 989.5 - 1.0
25/10:00am 6.8 -0.2 6.2 96 0.3 N 32 63 17 34 990.3 - 0.8
25/09:30am 6.8 -0.3 6.2 96 0.3 N 33 61 18 33 990.9 - 0.2
25/09:00am 6.8 -0.7 6.2 96 0.3 N 35 59 19 32 991.3 991.6 3.0
25/08:30am 6.8 -0.2 6.2 96 0.3 N 32 57 17 31 991.9 - 2.8
25/08:00am 6.6 0.7 6.0 96 0.3 N 26 54 14 29 992.5 - 2.8
25/07:32am 6.7 0.1 6.1 96 0.3 N 30 48 16 26 993.0 - 2.8
25/07:30am 6.7 -0.3 6.1 96 0.3 N 32 48 17 26 993.0 - 2.8
25/07:00am 6.5 1.4 5.9 96 0.3 N 22 44 12 24 993.5 - 2.4
25/06:30am 6.9 0.4 6.3 96 0.3 N 30 48 16 26 994.1 - 1.8
25/06:00am 6.8 -0.7 6.2 96 0.3 N 35 59 19 32 994.8 995.1 1.4
25/05:45am 6.5 -1.1 5.9 96 0.3 N 35 54 19 29 995.0 - 1.2
25/05:30am 6.6 -0.4 6.0 96 0.3 N 32 48 17 26 995.3 - 1.2
25/05:11am 6.5 -0.1 5.9 96 0.3 NNE 30 48 16 26 995.5 - 1.0
25/05:00am 6.6 -0.4 6.0 96 0.3 NNE 32 46 17 25 995.6 - 1.0
25/04:30am 6.4 -0.3 5.8 96 0.3 N 30 41 16 22 996.1 - 0.6
25/04:00am 6.2 -0.1 5.6 96 0.3 NNE 28 39 15 21 996.5 - 0.6
25/03:30am 6.2 0.3 5.6 96 0.3 N 26 33 14 18 997.1 - 0.4
25/03:00am 5.2 1.9 4.5 95 0.3 NNW 11 15 6 8 997.7 998.0 0.2
25/02:30am 5.4 1.0 4.7 95 0.3 N 17 20 9 11 998.1 - 0.0
25/02:00am 5.3 2.0 4.4 94 0.4 NNW 11 15 6 8 998.3 - 0.0
25/01:30am 5.4 1.7 4.4 93 0.4 NNW 13 15 7 8 998.6 - 0.0
25/01:00am 5.3 2.3 4.3 93 0.4 NNW 9 13 5 7 998.9 - 0.0
25/12:30am 5.2 1.8 4.0 92 0.5 N 11 13 6 7 999.1 - 0.0
25/12:00am 5.5 1.0 4.0 90 0.6 NNE 17 20 9 11 999.6 999.9 0.0
 
Date/Time
EDT
Temp
°C
App
Temp
°C
Dew
Point
Rel
Hum
%
Delta-T
°C
Wind Press
QNH
hPa
Press
MSL
hPa
Rain
since 9 am
mm
Dir
 
Spd
km/h
Gust
km/h
Spd
kts
Gust
kts
24/11:30pm 5.6 0.1 4.1 90 0.6 NNE 22 30 12 16 999.8 - 0.0
24/11:00pm 5.4 -1.2 4.1 91 0.6 WNW 28 35 15 19 1000.1 - 0.0

Other Formats:

Comma delimited format used in spreadsheet applications
http://www.bom.gov.au/fwo/IDT60801/IDT60801.94998.axf

JavaScript Object Notation format (JSON) in row-major order
http://www.bom.gov.au/fwo/IDT60801/IDT60801.94998.json